Time;durP1;ratioP1;P1;durP2;ratioP2;P2;SDS_P1;SDS_P2;PMS_P1;PMS_P2;Temp;Humidity;BMP_temperature;BMP_pressure;BME280_temperature;BME280_humidity;BME280_pressure;Samples;Min_cycle;Max_cycle;Signal;HPM_P1;HPM_P2
2022/03/25 00:00:21;;;;;;;43.27;25.07;;;;;6.60;102376.00;;;;10507077;28;20209;-77
2022/03/25 00:05:24;;;;;;;45.80;24.73;;;;;6.50;102382.00;;;;10473705;28;20312;-77
2022/03/25 00:10:26;;;;;;;56.17;28.00;;;;;6.40;102373.00;;;;10506948;28;20283;-77
2022/03/25 00:15:28;;;;;;;48.10;26.17;;;;;6.40;102371.00;;;;10494274;28;20198;-77
2022/03/25 00:20:30;;;;;;;44.40;24.67;;;;;6.30;102371.00;;;;10448602;28;20684;-77
2022/03/25 00:25:34;;;;;;;48.80;27.53;;;;;6.20;102376.00;;;;10475416;28;20214;-77
2022/03/25 00:30:36;;;;;;;55.50;27.27;;;;;6.10;102387.00;;;;10489239;28;20195;-77
2022/03/25 00:35:39;;;;;;;54.70;26.67;;;;;6.10;102383.00;;;;10505418;28;20250;-77
2022/03/25 00:40:44;;;;;;;47.23;24.70;;;;;6.00;102383.00;;;;10488603;28;20216;-77
2022/03/25 00:45:46;;;;;;;51.00;27.73;;;;;5.90;102376.00;;;;10490841;28;20194;-77
2022/03/25 00:50:49;;;;;;;45.73;26.10;;;;;5.80;102372.00;;;;10447140;28;20178;-77
2022/03/25 00:55:52;;;;;;;48.90;28.30;;;;;5.70;102375.00;;;;10447686;28;20228;-77
2022/03/25 01:00:54;;;;;;;51.10;28.07;;;;;5.70;102374.00;;;;10446719;28;20209;-77
2022/03/25 01:05:58;;;;;;;51.67;26.67;;;;;5.60;102373.00;;;;10469138;28;20200;-77
2022/03/25 01:11:00;;;;;;;51.43;28.23;;;;;5.60;102372.00;;;;10504666;28;20189;-77
2022/03/25 01:16:03;;;;;;;47.80;28.40;;;;;5.50;102381.00;;;;10504921;28;20246;-77
2022/03/25 01:21:05;;;;;;;56.93;29.50;;;;;5.40;102378.00;;;;10504855;28;20208;-76
2022/03/25 01:26:08;;;;;;;54.33;29.33;;;;;5.40;102376.00;;;;10504340;28;20675;-77
2022/03/25 01:31:10;;;;;;;57.50;30.60;;;;;5.30;102367.00;;;;10504736;28;20193;-77
2022/03/25 01:36:12;;;;;;;54.77;29.90;;;;;5.30;102358.00;;;;10470109;28;20221;-77
2022/03/25 01:41:17;;;;;;;52.67;30.43;;;;;5.30;102365.00;;;;10487852;28;20267;-76
2022/03/25 01:46:19;;;;;;;65.13;30.47;;;;;5.30;102360.00;;;;10472259;28;20215;-76
2022/03/25 01:51:27;;;;;;;53.07;29.77;;;;;5.20;102352.00;;;;10504672;28;20681;-77
2022/03/25 01:56:29;;;;;;;52.67;29.57;;;;;5.20;102355.00;;;;10513092;28;20233;-77
2022/03/25 02:01:31;;;;;;;51.87;29.57;;;;;5.10;102349.00;;;;10529243;28;20216;-77
2022/03/25 02:06:34;;;;;;;51.23;27.27;;;;;5.00;102359.00;;;;10509433;28;20220;-77
2022/03/25 02:11:37;;;;;;;52.73;29.33;;;;;5.00;102367.00;;;;10511256;28;20181;-77
2022/03/25 02:16:42;;;;;;;59.90;29.50;;;;;4.90;102363.00;;;;10494454;28;20475;-77
2022/03/25 02:21:47;;;;;;;57.47;33.30;;;;;4.80;102353.00;;;;10494463;28;20211;-77
2022/03/25 02:26:51;;;;;;;63.80;31.33;;;;;4.70;102367.00;;;;10536328;28;20231;-77
2022/03/25 02:31:54;;;;;;;56.53;31.17;;;;;4.70;102357.00;;;;10552549;28;20188;-77
2022/03/25 02:36:56;;;;;;;57.63;31.40;;;;;4.60;102356.00;;;;10522422;28;20643;-77
2022/03/25 02:41:58;;;;;;;59.97;31.97;;;;;4.50;102373.00;;;;10526456;28;20213;-77
2022/03/25 02:47:00;;;;;;;60.27;30.97;;;;;4.50;102373.00;;;;10467127;28;20190;-77
2022/03/25 02:52:03;;;;;;;58.70;30.17;;;;;4.40;102363.00;;;;10493046;28;20192;-77
2022/03/25 02:57:05;;;;;;;59.23;31.30;;;;;4.30;102361.00;;;;10509548;28;20235;-77
2022/03/25 03:02:07;;;;;;;62.03;32.03;;;;;4.30;102364.00;;;;10509747;28;20244;-77
2022/03/25 03:07:10;;;;;;;59.07;31.83;;;;;4.30;102369.00;;;;10467566;28;20201;-77
2022/03/25 03:12:13;;;;;;;67.27;31.50;;;;;4.30;102374.00;;;;10467883;28;20197;-77
2022/03/25 03:17:15;;;;;;;61.13;35.07;;;;;4.30;102373.00;;;;10507318;28;20648;-77
2022/03/25 03:22:19;;;;;;;60.00;32.53;;;;;4.20;102373.00;;;;10491726;28;20679;-77
2022/03/25 03:27:21;;;;;;;67.40;32.87;;;;;4.20;102373.00;;;;10507942;28;20197;-77
2022/03/25 03:32:25;;;;;;;63.30;33.17;;;;;4.10;102368.00;;;;10492083;28;20185;-77
2022/03/25 03:37:27;;;;;;;58.67;31.23;;;;;4.10;102372.00;;;;10491783;28;20311;-76
2022/03/25 03:42:29;;;;;;;62.73;33.07;;;;;4.00;102375.00;;;;10474447;28;20201;-77
2022/03/25 03:47:31;;;;;;;66.70;32.57;;;;;4.00;102372.00;;;;10491658;28;20246;-77
2022/03/25 03:52:33;;;;;;;70.33;34.13;;;;;3.90;102376.00;;;;10474783;28;20226;-77
2022/03/25 03:57:38;;;;;;;65.83;33.33;;;;;3.90;102364.00;;;;10532753;28;20176;-77
2022/03/25 04:02:42;;;;;;;66.40;34.00;;;;;3.90;102370.00;;;;10532599;28;20240;-77
2022/03/25 04:07:48;;;;;;;68.40;35.13;;;;;3.80;102376.00;;;;10495616;28;20296;-77
2022/03/25 04:12:50;;;;;;;70.03;34.80;;;;;3.70;102368.00;;;;10501649;28;20181;-76
2022/03/25 04:17:53;;;;;;;72.93;36.13;;;;;3.70;102376.00;;;;10473277;28;20708;-76
2022/03/25 04:22:54;;;;;;;75.30;36.03;;;;;3.60;102376.00;;;;10522713;28;20251;-77
2022/03/25 04:27:58;;;;;;;90.20;40.37;;;;;3.70;102377.00;;;;10505825;28;20577;-77
2022/03/25 04:33:05;;;;;;;80.90;39.83;;;;;3.70;102371.00;;;;10505847;28;20272;-77
2022/03/25 04:38:07;;;;;;;76.97;40.10;;;;;3.60;102375.00;;;;10488758;28;20229;-77
2022/03/25 04:43:09;;;;;;;84.80;42.33;;;;;3.60;102369.00;;;;10477014;28;20202;-77
2022/03/25 04:48:11;;;;;;;90.80;44.03;;;;;3.60;102374.00;;;;10448169;28;20247;-77
2022/03/25 04:53:13;;;;;;;92.60;45.30;;;;;3.60;102370.00;;;;10431525;28;20332;-76
2022/03/25 04:58:15;;;;;;;87.13;42.10;;;;;3.60;102373.00;;;;10431150;28;20193;-77
2022/03/25 05:03:19;;;;;;;87.87;42.27;;;;;3.60;102383.00;;;;10431002;28;20209;-77
2022/03/25 05:08:21;;;;;;;91.30;41.57;;;;;3.50;102387.00;;;;10446513;28;20190;-77
2022/03/25 05:13:23;;;;;;;83.07;41.67;;;;;3.40;102385.00;;;;10464201;28;20660;-77
2022/03/25 05:18:24;;;;;;;102.33;43.67;;;;;3.40;102388.00;;;;10480226;28;20273;-77
2022/03/25 05:23:27;;;;;;;95.63;43.83;;;;;3.40;102394.00;;;;10447133;28;20206;-77
2022/03/25 05:28:29;;;;;;;98.17;45.93;;;;;3.40;102393.00;;;;10447083;28;20263;-80
2022/03/25 05:33:30;;;;;;;96.80;43.60;;;;;3.40;102392.00;;;;10465235;28;20194;-77
2022/03/25 05:38:33;;;;;;;86.30;41.63;;;;;3.40;102395.00;;;;10475769;28;20217;-77
2022/03/25 05:43:35;;;;;;;87.33;41.00;;;;;3.30;102409.00;;;;10512667;28;20239;-77
2022/03/25 05:48:37;;;;;;;88.30;42.07;;;;;3.30;102414.00;;;;10512642;28;20189;-77
2022/03/25 05:53:42;;;;;;;82.33;42.83;;;;;3.40;102414.00;;;;10495960;28;20184;-77
2022/03/25 05:58:44;;;;;;;88.10;43.40;;;;;3.50;102422.00;;;;10495200;28;20670;-79
2022/03/25 06:03:47;;;;;;;100.60;44.47;;;;;3.70;102418.00;;;;10494971;28;20307;-77
2022/03/25 06:08:49;;;;;;;95.23;45.07;;;;;3.90;102427.00;;;;10495460;28;20651;-77
2022/03/25 06:13:52;;;;;;;102.93;48.77;;;;;4.30;102426.00;;;;10478298;28;20192;-76
2022/03/25 06:18:55;;;;;;;95.87;48.37;;;;;4.60;102427.00;;;;10478255;28;20199;-77
2022/03/25 06:23:57;;;;;;;82.23;43.37;;;;;5.00;102430.00;;;;10494973;28;20540;-76
2022/03/25 06:28:59;;;;;;;87.10;44.93;;;;;5.30;102437.00;;;;10511182;28;20196;-77
2022/03/25 06:34:03;;;;;;;85.20;42.77;;;;;5.60;102440.00;;;;10474903;28;20189;-77
2022/03/25 06:39:05;;;;;;;81.13;43.80;;;;;5.90;102448.00;;;;10510575;28;20227;-77
2022/03/25 06:44:07;;;;;;;95.53;42.93;;;;;6.20;102454.00;;;;10511123;28;20205;-77
2022/03/25 06:49:10;;;;;;;91.53;43.60;;;;;6.60;102452.00;;;;10509728;28;20757;-77
2022/03/25 06:54:12;;;;;;;82.00;42.87;;;;;7.10;102443.00;;;;10477017;28;20189;-77
2022/03/25 06:59:15;;;;;;;81.93;42.97;;;;;7.70;102445.00;;;;10493340;28;20195;-77
2022/03/25 07:04:17;;;;;;;69.10;39.53;;;;;8.30;102452.00;;;;10484596;28;20224;-77
2022/03/25 07:09:19;;;;;;;62.10;36.03;;;;;8.90;102453.00;;;;10468099;28;20196;-77
2022/03/25 07:14:22;;;;;;;62.93;36.83;;;;;9.40;102457.00;;;;10467680;28;20194;-78
2022/03/25 07:19:25;;;;;;;62.77;36.90;;;;;9.90;102466.00;;;;10450597;28;20198;-78
2022/03/25 07:24:27;;;;;;;56.17;35.60;;;;;10.30;102460.00;;;;10483715;28;20268;-77
2022/03/25 07:29:29;;;;;;;57.63;35.23;;;;;10.70;102469.00;;;;10450258;28;20255;-78
2022/03/25 07:34:36;;;;;;;50.60;32.77;;;;;10.90;102478.00;;;;10476460;28;20201;-78
2022/03/25 07:39:38;;;;;;;52.33;32.77;;;;;11.20;102478.00;;;;10508248;28;20278;-78
2022/03/25 07:44:40;;;;;;;66.10;33.83;;;;;11.60;102480.00;;;;10491579;28;20729;-78
2022/03/25 07:49:43;;;;;;;51.47;34.10;;;;;11.80;102494.00;;;;10508159;28;20287;-78
2022/03/25 07:54:45;;;;;;;55.97;34.63;;;;;12.00;102486.00;;;;10507693;28;20239;-77
2022/03/25 07:59:48;;;;;;;56.17;34.53;;;;;12.20;102491.00;;;;10491145;28;20203;-78
2022/03/25 08:04:50;;;;;;;58.17;36.43;;;;;12.60;102498.00;;;;10507214;28;20201;-78
2022/03/25 08:09:52;;;;;;;56.37;35.93;;;;;12.70;102494.00;;;;10490647;28;20193;-77
2022/03/25 08:14:54;;;;;;;59.23;37.20;;;;;13.10;102506.00;;;;10506927;28;20247;-78
2022/03/25 08:19:55;;;;;;;57.70;35.93;;;;;13.40;102505.00;;;;10489887;28;20200;-78
2022/03/25 08:30:18;;;;;;;62.23;40.23;;;;;14.30;102514.00;;;;10522491;28;20193;-77
2022/03/25 08:35:20;;;;;;;68.93;43.43;;;;;14.80;102521.00;;;;10489393;28;20242;-77
2022/03/25 08:40:22;;;;;;;63.17;42.93;;;;;15.20;102512.00;;;;10505484;28;20303;-77
2022/03/25 08:45:25;;;;;;;68.53;45.00;;;;;15.50;102517.00;;;;10505516;28;20205;-77
2022/03/25 08:50:27;;;;;;;70.27;47.37;;;;;15.80;102520.00;;;;10488952;28;20189;-77
2022/03/25 08:55:29;;;;;;;70.67;47.93;;;;;16.00;102526.00;;;;10521787;28;20188;-77
2022/03/25 09:00:31;;;;;;;69.30;45.30;;;;;16.40;102520.00;;;;10488505;28;20204;-77
2022/03/25 09:05:33;;;;;;;70.70;49.57;;;;;16.80;102530.00;;;;10488247;28;20223;-77
2022/03/25 09:10:35;;;;;;;71.60;49.37;;;;;17.00;102533.00;;;;10504409;28;20521;-78
2022/03/25 09:15:38;;;;;;;77.27;48.57;;;;;17.60;102534.00;;;;10529936;28;20185;-77
2022/03/25 09:20:39;;;;;;;70.55;47.38;;;;;17.80;102536.00;;;;10512860;28;20804;-77
2022/03/25 09:25:42;;;;;;;72.35;49.08;;;;;17.90;102532.00;;;;10496438;28;20300;-77
2022/03/25 09:30:44;;;;;;;58.13;41.03;;;;;18.30;102543.00;;;;10546031;28;20697;-78
2022/03/25 09:35:46;;;;;;;65.78;44.75;;;;;18.60;102536.00;;;;10542551;28;20239;-77
2022/03/25 09:40:48;;;;;;;55.28;35.97;;;;;18.70;102540.00;;;;10495443;28;20216;-77
2022/03/25 09:45:50;;;;;;;56.30;38.47;;;;;19.00;102541.00;;;;10495055;28;20212;-77
2022/03/25 09:50:52;;;;;;;51.08;35.60;;;;;19.40;102537.00;;;;10546750;28;20667;-78
2022/03/25 09:56:15;;;;;;;50.78;34.65;;;;;19.50;102546.00;;;;10531829;28;20712;-78
2022/03/25 10:01:17;;;;;;;42.90;30.42;;;;;19.80;102550.00;;;;10479464;28;20201;-78
2022/03/25 10:06:19;;;;;;;47.95;32.05;;;;;20.00;102541.00;;;;10528400;28;20192;-78
2022/03/25 10:11:27;;;;;;;46.75;30.60;;;;;20.20;102537.00;;;;10511200;28;20216;-78
2022/03/25 10:16:31;;;;;;;44.60;32.22;;;;;20.20;102542.00;;;;10494611;28;20197;-78
2022/03/25 10:21:59;;;;;;;45.03;30.45;;;;;20.50;102543.00;;;;10494091;28;20277;-78
2022/03/25 10:27:08;;;;;;;41.92;28.60;;;;;20.90;102552.00;;;;10513883;28;20200;-78
2022/03/25 10:32:11;;;;;;;42.25;28.92;;;;;20.90;102538.00;;;;10508555;28;20190;-78
2022/03/25 10:37:14;;;;;;;42.65;29.90;;;;;20.70;102538.00;;;;10526783;28;20228;-78
2022/03/25 10:42:16;;;;;;;35.47;25.00;;;;;21.20;102530.00;;;;10493459;28;20205;-78
2022/03/25 10:47:21;;;;;;;40.38;27.08;;;;;21.00;102539.00;;;;10493287;28;20193;-78
2022/03/25 10:52:32;;;;;;;39.55;27.33;;;;;21.50;102539.00;;;;10509591;28;20655;-78
2022/03/25 10:58:07;;;;;;;35.17;24.73;;;;;22.00;102535.00;;;;10476594;28;20532;-78
2022/03/25 11:03:10;;;;;;;34.75;24.58;;;;;21.90;102539.00;;;;10502382;28;20244;-78
2022/03/25 11:08:18;;;;;;;31.33;21.88;;;;;22.10;102527.00;;;;10509013;28;20231;-78
2022/03/25 11:13:26;;;;;;;32.00;22.73;;;;;22.30;102518.00;;;;10509624;28;20192;-78
2022/03/25 11:18:29;;;;;;;33.38;23.35;;;;;22.30;102512.00;;;;10542834;28;20181;-78
2022/03/25 11:23:40;;;;;;;34.33;22.23;;;;;22.60;102513.00;;;;10525619;28;20239;-78
2022/03/25 11:28:43;;;;;;;33.55;19.70;;;;;22.60;102509.00;;;;10524316;28;20219;-76
2022/03/25 11:34:09;;;;;;;31.25;22.02;;;;;22.60;102506.00;;;;10525083;28;20184;-78
2022/03/25 11:39:21;;;;;;;33.25;22.23;;;;;22.70;102501.00;;;;10507893;28;20221;-77
2022/03/25 11:44:25;;;;;;;31.30;21.25;;;;;23.00;102485.00;;;;10490742;28;20224;-79
2022/03/25 11:49:29;;;;;;;31.27;20.00;;;;;23.00;102492.00;;;;10490512;28;20209;-77
2022/03/25 11:54:34;;;;;;;29.05;22.27;;;;;23.00;102481.00;;;;10506847;28;20254;-77
2022/03/25 11:59:50;;;;;;;35.90;24.95;;;;;23.20;102480.00;;;;10524433;28;20196;-78
2022/03/25 12:04:52;;;;;;;32.80;22.40;;;;;23.40;102477.00;;;;10528490;28;20201;-78
2022/03/25 12:09:54;;;;;;;35.00;23.48;;;;;23.60;102470.00;;;;10481346;28;20526;-78
2022/03/25 12:15:10;;;;;;;32.53;22.00;;;;;23.60;102470.00;;;;10481060;28;20263;-79
2022/03/25 12:20:11;;;;;;;34.45;23.30;;;;;23.80;102470.00;;;;10464965;28;20201;-78
2022/03/25 12:25:17;;;;;;;31.10;22.20;;;;;23.80;102458.00;;;;10464469;28;20232;-78
2022/03/25 12:30:19;;;;;;;31.60;21.58;;;;;23.90;102460.00;;;;10481471;28;20190;-78
2022/03/25 12:35:28;;;;;;;30.73;21.25;;;;;24.10;102454.00;;;;10497906;28;20257;-78
2022/03/25 12:40:34;;;;;;;33.95;23.05;;;;;24.00;102448.00;;;;10515957;28;20200;-79
2022/03/25 12:45:39;;;;;;;24.42;18.10;;;;;24.00;102440.00;;;;10521756;28;20216;-79
2022/03/25 12:50:48;;;;;;;28.52;18.15;;;;;24.10;102437.00;;;;10505542;28;20189;-79
2022/03/25 12:55:50;;;;;;;31.17;19.48;;;;;24.10;102431.00;;;;10522355;28;20177;-77
2022/03/25 13:00:54;;;;;;;30.05;19.88;;;;;24.40;102427.00;;;;10522695;28;20212;-78
2022/03/25 13:05:57;;;;;;;32.83;22.08;;;;;24.40;102416.00;;;;10504547;28;20300;-78
2022/03/25 13:10:59;;;;;;;22.80;17.63;;;;;24.80;102426.00;;;;10437740;28;20201;-77
2022/03/25 13:16:03;;;;;;;26.13;16.10;;;;;24.40;102418.00;;;;10498229;28;20640;-77
2022/03/25 13:21:07;;;;;;;24.90;15.85;;;;;24.00;102417.00;;;;10479722;28;20190;-78
2022/03/25 13:26:09;;;;;;;30.27;19.52;;;;;24.20;102413.00;;;;10463121;28;20282;-78
2022/03/25 13:31:12;;;;;;;35.50;17.98;;;;;24.20;102417.00;;;;10480111;28;20686;-77
2022/03/25 13:36:15;;;;;;;49.55;19.83;;;;;25.30;102398.00;;;;10498032;28;20698;-78
2022/03/25 13:41:19;;;;;;;23.45;18.33;;;;;26.20;102394.00;;;;10469354;28;20240;-77
2022/03/25 13:46:23;;;;;;;29.88;19.63;;;;;27.60;102381.00;;;;10500181;28;20216;-77
2022/03/25 13:51:39;;;;;;;27.58;18.85;;;;;28.20;102369.00;;;;10546875;28;20255;-77
2022/03/25 13:56:44;;;;;;;30.27;19.35;;;;;28.40;102362.00;;;;10546981;28;20588;-77
2022/03/25 14:01:46;;;;;;;26.67;16.60;;;;;28.60;102342.00;;;;10536555;28;20181;-77
2022/03/25 14:06:50;;;;;;;33.90;17.98;;;;;29.10;102344.00;;;;10525130;28;20195;-77
2022/03/25 14:12:18;;;;;;;26.73;17.55;;;;;29.40;102346.00;;;;10512791;28;20948;-78
2022/03/25 14:17:30;;;;;;;26.15;17.13;;;;;29.40;102321.00;;;;10572270;28;20218;-77
2022/03/25 14:22:32;;;;;;;27.35;16.65;;;;;29.60;102327.00;;;;10553642;28;20631;-77
2022/03/25 14:27:35;;;;;;;26.42;14.88;;;;;29.40;102332.00;;;;10536987;28;20206;-78
2022/03/25 14:32:37;;;;;;;28.15;15.93;;;;;26.90;102365.00;;;;10537046;28;20230;-78
2022/03/25 14:37:39;;;;;;;22.00;14.60;;;;;27.70;102297.00;;;;10516195;28;20228;-79
2022/03/25 14:42:41;;;;;;;27.35;18.33;;;;;28.50;102314.00;;;;10552415;28;20208;-78
2022/03/25 14:47:43;;;;;;;28.55;18.33;;;;;26.90;102314.00;;;;10552785;28;20199;-77
2022/03/25 14:52:45;;;;;;;28.83;18.73;;;;;25.10;102313.00;;;;10552856;28;20344;-76
2022/03/25 14:57:47;;;;;;;26.73;17.10;;;;;24.90;102303.00;;;;10568852;28;20193;-77
2022/03/25 15:02:49;;;;;;;26.40;17.20;;;;;26.30;102308.00;;;;10568247;28;20196;-77
2022/03/25 15:07:53;;;;;;;29.63;18.50;;;;;24.80;102317.00;;;;10513148;28;20201;-77
2022/03/25 15:12:55;;;;;;;29.60;19.75;;;;;25.40;102297.00;;;;10525756;28;20236;-76
2022/03/25 15:17:57;;;;;;;29.15;17.60;;;;;25.00;102312.00;;;;10491975;28;20258;-77
2022/03/25 15:22:59;;;;;;;29.92;20.65;;;;;24.00;102304.00;;;;10508388;28;20208;-77
2022/03/25 15:28:02;;;;;;;33.22;23.25;;;;;23.80;102311.00;;;;10543325;28;20188;-77
2022/03/25 15:38:24;;;;;;;34.63;22.92;;;;;22.10;102313.00;;;;10513511;28;20219;-77
2022/03/25 15:43:26;;;;;;;37.10;27.05;;;;;22.80;102311.00;;;;10507795;28;20204;-77
2022/03/25 15:48:28;;;;;;;33.72;26.05;;;;;21.70;102326.00;;;;10507731;28;20189;-77
2022/03/25 15:53:30;;;;;;;40.42;27.38;;;;;21.00;102321.00;;;;10490379;28;20185;-78
2022/03/25 15:58:32;;;;;;;45.03;28.40;;;;;19.80;102329.00;;;;10507298;28;20670;-77
2022/03/25 16:03:34;;;;;;;34.90;27.52;;;;;19.10;102322.00;;;;10504849;28;20613;-78
2022/03/25 16:08:36;;;;;;;40.22;27.58;;;;;19.00;102320.00;;;;10569604;28;20184;-77
2022/03/25 16:13:38;;;;;;;37.92;27.23;;;;;18.90;102315.00;;;;10531259;28;20242;-77
2022/03/25 16:18:41;;;;;;;41.17;28.38;;;;;18.70;102318.00;;;;10547790;28;20180;-77
2022/03/25 16:23:42;;;;;;;38.85;26.02;;;;;18.60;102310.00;;;;10529846;28;20813;-77
2022/03/25 16:28:44;;;;;;;37.65;26.08;;;;;18.60;102310.00;;;;10564227;28;20196;-78
2022/03/25 16:33:46;;;;;;;39.90;26.63;;;;;18.30;102312.00;;;;10535637;28;20189;-77
2022/03/25 16:38:48;;;;;;;39.42;27.15;;;;;18.10;102316.00;;;;10505330;28;20320;-77
2022/03/25 16:43:50;;;;;;;41.17;27.92;;;;;17.80;102316.00;;;;10504788;28;20322;-77
2022/03/25 16:48:52;;;;;;;44.20;28.75;;;;;17.60;102318.00;;;;10505502;28;20188;-77
2022/03/25 16:53:54;;;;;;;45.97;29.90;;;;;17.30;102314.00;;;;10488694;28;20250;-77
2022/03/25 16:58:56;;;;;;;42.70;27.63;;;;;17.20;102318.00;;;;10508258;28;20208;-77
2022/03/25 17:03:58;;;;;;;39.40;28.23;;;;;17.00;102311.00;;;;10524592;28;20270;-77
2022/03/25 17:09:01;;;;;;;41.93;27.77;;;;;16.80;102319.00;;;;10487831;28;20707;-77
2022/03/25 17:14:03;;;;;;;40.97;27.13;;;;;16.50;102321.00;;;;10521851;28;20276;-77
2022/03/25 17:19:05;;;;;;;39.57;26.97;;;;;16.30;102324.00;;;;10505069;28;20597;-77
2022/03/25 17:24:09;;;;;;;42.07;27.47;;;;;16.10;102333.00;;;;10504559;28;20741;-77
2022/03/25 17:29:11;;;;;;;38.67;26.83;;;;;15.80;102332.00;;;;10504244;28;20200;-77
2022/03/25 17:34:13;;;;;;;46.17;27.53;;;;;15.60;102333.00;;;;10532515;28;20192;-77
2022/03/25 17:39:16;;;;;;;43.13;28.07;;;;;15.30;102332.00;;;;10554659;28;20234;-77
2022/03/25 17:44:18;;;;;;;35.33;26.10;;;;;15.10;102341.00;;;;10521320;28;20213;-77
2022/03/25 17:49:21;;;;;;;38.43;26.33;;;;;14.90;102335.00;;;;10495293;28;20247;-77
2022/03/25 17:54:23;;;;;;;41.33;26.40;;;;;14.60;102332.00;;;;10495479;28;20246;-77
2022/03/25 17:59:25;;;;;;;38.87;25.47;;;;;14.30;102346.00;;;;10512061;28;20536;-77
2022/03/25 18:04:27;;;;;;;39.27;23.77;;;;;14.10;102346.00;;;;10494144;28;20208;-77
2022/03/25 18:09:29;;;;;;;38.80;23.33;;;;;13.90;102344.00;;;;10478460;28;20193;-77
2022/03/25 18:14:31;;;;;;;36.10;23.03;;;;;13.60;102350.00;;;;10481706;28;20277;-77
2022/03/25 18:19:33;;;;;;;37.30;23.67;;;;;13.40;102351.00;;;;10453283;28;20193;-77
2022/03/25 18:24:35;;;;;;;30.97;21.17;;;;;13.10;102353.00;;;;10436882;28;20224;-77
2022/03/25 18:29:37;;;;;;;39.00;23.80;;;;;12.90;102351.00;;;;10469239;28;20607;-77
2022/03/25 18:34:39;;;;;;;39.10;22.57;;;;;12.70;102352.00;;;;10485307;28;20181;-77
2022/03/25 18:39:41;;;;;;;36.10;23.77;;;;;12.60;102362.00;;;;10469555;28;20225;-77
2022/03/25 18:44:43;;;;;;;35.07;23.50;;;;;12.40;102364.00;;;;10467258;28;20255;-77
2022/03/25 18:49:45;;;;;;;37.33;23.87;;;;;12.20;102360.00;;;;10498571;28;20198;-77
2022/03/25 18:54:48;;;;;;;40.10;24.37;;;;;12.10;102365.00;;;;10534375;28;20196;-77
2022/03/25 18:59:50;;;;;;;38.77;25.37;;;;;12.10;102375.00;;;;10535224;28;20196;-77
2022/03/25 19:04:52;;;;;;;41.60;26.50;;;;;12.00;102370.00;;;;10551147;28;20204;-77
2022/03/25 19:09:54;;;;;;;45.03;27.27;;;;;11.90;102378.00;;;;10517337;28;20211;-77
2022/03/25 19:14:56;;;;;;;44.53;27.90;;;;;11.80;102378.00;;;;10533726;28;20195;-77
2022/03/25 19:19:58;;;;;;;48.10;28.43;;;;;11.70;102388.00;;;;10533107;28;20192;-77
2022/03/25 19:25:00;;;;;;;45.87;28.17;;;;;11.60;102391.00;;;;10550157;28;20295;-78
2022/03/25 19:30:03;;;;;;;47.70;28.97;;;;;11.50;102392.00;;;;10517489;28;20197;-77
2022/03/25 19:35:06;;;;;;;47.33;27.07;;;;;11.40;102397.00;;;;10520123;28;20204;-77
2022/03/25 19:40:11;;;;;;;53.30;30.07;;;;;11.20;102399.00;;;;10507593;28;20308;-78
2022/03/25 19:45:13;;;;;;;50.67;30.97;;;;;11.00;102400.00;;;;10491307;28;20205;-77
2022/03/25 19:50:15;;;;;;;46.20;27.17;;;;;11.00;102403.00;;;;10490889;28;20683;-77
2022/03/25 19:55:19;;;;;;;42.03;26.20;;;;;10.90;102403.00;;;;10491272;28;20188;-77
2022/03/25 20:00:21;;;;;;;50.03;28.00;;;;;10.90;102414.00;;;;10490631;28;20200;-77
2022/03/25 20:05:23;;;;;;;45.83;28.50;;;;;10.90;102421.00;;;;10490085;28;20291;-77
2022/03/25 20:10:25;;;;;;;58.87;34.70;;;;;10.80;102419.00;;;;10508154;28;20673;-77
2022/03/25 20:15:27;;;;;;;46.37;30.10;;;;;10.70;102423.00;;;;10495231;28;20196;-77
2022/03/25 20:20:29;;;;;;;47.70;29.50;;;;;10.60;102417.00;;;;10548439;28;20200;-77
2022/03/25 20:25:31;;;;;;;51.93;28.97;;;;;10.50;102420.00;;;;10531536;28;20265;-77
2022/03/25 20:30:32;;;;;;;52.53;28.77;;;;;10.40;102424.00;;;;10565336;28;20195;-77
2022/03/25 20:35:36;;;;;;;54.07;29.67;;;;;10.40;102430.00;;;;10485903;28;20258;-77
2022/03/25 20:40:45;;;;;;;51.53;28.13;;;;;10.30;102435.00;;;;10488598;28;20204;-77
2022/03/25 20:45:47;;;;;;;48.33;28.13;;;;;10.20;102444.00;;;;10488796;28;20213;-77
2022/03/25 20:50:49;;;;;;;64.30;33.17;;;;;10.10;102445.00;;;;10489058;28;20235;-77
2022/03/25 20:55:50;;;;;;;52.53;31.17;;;;;10.00;102449.00;;;;10488874;28;20185;-77
2022/03/25 21:00:53;;;;;;;44.20;28.40;;;;;9.80;102452.00;;;;10531111;28;20188;-77
2022/03/25 21:05:55;;;;;;;49.53;29.20;;;;;9.80;102459.00;;;;10542445;28;20204;-77
2022/03/25 21:10:58;;;;;;;50.30;27.00;;;;;9.70;102454.00;;;;10488438;28;20193;-77
2022/03/25 21:16:00;;;;;;;51.40;28.97;;;;;9.60;102448.00;;;;10472363;28;20181;-77
2022/03/25 21:21:02;;;;;;;55.47;30.73;;;;;9.50;102459.00;;;;10521536;28;20216;-77
2022/03/25 21:26:04;;;;;;;46.93;29.73;;;;;9.40;102461.00;;;;10521345;28;20733;-77
2022/03/25 21:31:07;;;;;;;47.83;28.73;;;;;9.30;102462.00;;;;10521419;28;20674;-77
2022/03/25 21:36:09;;;;;;;51.93;30.27;;;;;9.30;102466.00;;;;10487287;28;20224;-77
2022/03/25 21:41:11;;;;;;;52.07;30.20;;;;;9.20;102476.00;;;;10487798;28;20193;-77
2022/03/25 21:46:13;;;;;;;51.07;30.50;;;;;9.10;102470.00;;;;10487626;28;20563;-77
2022/03/25 21:51:15;;;;;;;54.53;31.50;;;;;9.00;102483.00;;;;10526708;28;20753;-77
2022/03/25 21:56:17;;;;;;;56.57;30.27;;;;;9.00;102479.00;;;;10513215;28;20230;-77
2022/03/25 22:01:19;;;;;;;49.60;28.20;;;;;9.00;102481.00;;;;10503607;28;20312;-78
2022/03/25 22:06:21;;;;;;;44.03;26.80;;;;;9.10;102472.00;;;;10486887;28;20637;-78
2022/03/25 22:11:24;;;;;;;50.47;28.27;;;;;9.10;102477.00;;;;10488031;28;20181;-77
2022/03/25 22:16:26;;;;;;;52.63;28.13;;;;;9.10;102484.00;;;;10520104;28;20196;-78
2022/03/25 22:21:28;;;;;;;49.13;28.80;;;;;9.10;102491.00;;;;10490824;28;20192;-78
2022/03/25 22:26:30;;;;;;;54.73;29.27;;;;;9.10;102485.00;;;;10494430;28;20720;-78
2022/03/25 22:31:33;;;;;;;45.73;28.23;;;;;9.00;102494.00;;;;10477361;28;20287;-78
2022/03/25 22:36:44;;;;;;;52.27;29.67;;;;;8.90;102487.00;;;;10493250;28;20243;-78
2022/03/25 22:41:48;;;;;;;47.67;28.20;;;;;8.70;102492.00;;;;10510447;28;20686;-78
2022/03/25 22:46:50;;;;;;;43.70;26.70;;;;;8.60;102497.00;;;;10509654;28;20613;-78
2022/03/25 22:51:52;;;;;;;46.93;27.17;;;;;8.40;102498.00;;;;10509340;28;20196;-78
2022/03/25 22:56:54;;;;;;;52.13;27.27;;;;;8.20;102495.00;;;;10509940;28;20256;-78
2022/03/25 23:01:56;;;;;;;49.90;27.93;;;;;8.10;102492.00;;;;10492732;28;20193;-78
2022/03/25 23:06:58;;;;;;;47.43;28.10;;;;;7.90;102498.00;;;;10478595;28;20304;-78
2022/03/25 23:12:02;;;;;;;46.17;28.30;;;;;7.80;102496.00;;;;10453393;28;20271;-78
2022/03/25 23:17:04;;;;;;;52.47;27.90;;;;;7.60;102500.00;;;;10451177;28;20194;-78
2022/03/25 23:22:06;;;;;;;50.60;28.07;;;;;7.50;102491.00;;;;10483606;28;20189;-78
2022/03/25 23:27:08;;;;;;;51.57;29.10;;;;;7.50;102510.00;;;;10504718;28;20212;-78
2022/03/25 23:32:10;;;;;;;48.20;27.17;;;;;7.40;102504.00;;;;10508094;28;20647;-78
2022/03/25 23:37:12;;;;;;;46.57;27.83;;;;;7.30;102501.00;;;;10475731;28;20229;-80
2022/03/25 23:42:14;;;;;;;48.40;28.53;;;;;7.20;102505.00;;;;10466618;28;20189;-78
2022/03/25 23:47:16;;;;;;;46.70;27.83;;;;;7.10;102506.00;;;;10474751;28;20352;-78
2022/03/25 23:52:18;;;;;;;51.10;29.67;;;;;7.00;102512.00;;;;10507435;28;20193;-78
